Time;durP1;ratioP1;P1;durP2;ratioP2;P2;SDS_P1;SDS_P2;PMS_P1;PMS_P2;Temp;Humidity;BMP_temperature;BMP_pressure;BME280_temperature;BME280_humidity;BME280_pressure;Samples;Min_cycle;Max_cycle;Signal;HPM_P1;HPM_P2
2021/10/19 00:02:11;;;;;;;13.17;11.77;;;;;;;13.19;77.47;101915.75;4977136;28;20034;-73
2021/10/19 00:04:36;;;;;;;16.87;11.93;;;;;;;13.19;77.71;101913.13;4976601;28;20345;-73
2021/10/19 00:07:02;;;;;;;16.67;12.20;;;;;;;13.21;77.63;101909.66;4973060;28;20027;-73
2021/10/19 00:09:27;;;;;;;15.47;11.30;;;;;;;13.20;77.77;101908.72;4962275;28;20031;-73
2021/10/19 00:11:52;;;;;;;10.50;7.77;;;;;;;13.22;78.14;101912.34;4982693;28;20392;-74
2021/10/19 00:14:18;;;;;;;13.80;11.57;;;;;;;13.22;78.00;101906.16;4979927;28;20042;-73
2021/10/19 00:16:43;;;;;;;10.50;8.17;;;;;;;13.30;77.91;101915.22;4976666;28;20015;-73
2021/10/19 00:19:08;;;;;;;12.47;9.67;;;;;;;13.29;77.74;101916.97;4956573;28;20067;-73
2021/10/19 00:21:33;;;;;;;14.53;11.70;;;;;;;13.28;77.71;101911.66;4970918;28;20113;-73
2021/10/19 00:23:59;;;;;;;11.80;10.57;;;;;;;13.30;77.94;101904.69;4980287;28;20396;-73
2021/10/19 00:26:25;;;;;;;12.63;10.07;;;;;;;13.35;77.95;101899.59;4980490;28;20027;-73
2021/10/19 00:28:51;;;;;;;11.23;10.03;;;;;;;13.36;77.92;101897.00;4946690;28;20101;-74
2021/10/19 00:31:16;;;;;;;13.87;11.20;;;;;;;13.35;78.01;101891.69;4980025;28;20386;-73
2021/10/19 00:33:41;;;;;;;14.53;10.90;;;;;;;13.36;78.37;101891.75;4980403;28;20034;-73
2021/10/19 00:36:07;;;;;;;10.40;9.20;;;;;;;13.39;78.28;101905.00;4980298;28;20078;-73
2021/10/19 00:38:32;;;;;;;12.60;9.37;;;;;;;13.37;78.68;101903.19;4979546;28;20034;-74
2021/10/19 00:40:57;;;;;;;12.83;10.83;;;;;;;13.34;79.07;101893.44;4979455;28;20046;-75
2021/10/19 00:43:24;;;;;;;16.47;12.27;;;;;;;13.28;79.83;101896.78;4980001;28;20309;-73
2021/10/19 00:45:50;;;;;;;17.07;13.87;;;;;;;13.26;80.38;101890.53;4980843;28;20393;-75
2021/10/19 00:48:17;;;;;;;15.10;11.77;;;;;;;13.24;80.40;101891.31;4980254;28;20049;-74
2021/10/19 00:50:43;;;;;;;15.37;12.53;;;;;;;13.26;80.42;101884.41;4964206;28;20122;-74
2021/10/19 00:53:08;;;;;;;16.33;13.80;;;;;;;13.23;81.17;101879.94;4978905;28;20043;-73
2021/10/19 00:55:34;;;;;;;15.90;13.30;;;;;;;13.18;81.36;101879.78;4980115;28;20377;-75
2021/10/19 00:58:00;;;;;;;17.53;13.03;;;;;;;13.17;81.72;101879.72;4961689;28;20039;-74
2021/10/19 01:00:26;;;;;;;19.60;15.10;;;;;;;13.13;82.01;101878.72;4973442;28;20305;-74
2021/10/19 01:02:51;;;;;;;19.17;14.73;;;;;;;13.13;82.11;101867.31;4979858;28;20031;-74
2021/10/19 01:05:16;;;;;;;21.27;15.63;;;;;;;13.14;82.19;101867.34;4979036;28;20059;-74
2021/10/19 01:07:42;;;;;;;19.37;14.00;;;;;;;13.16;82.01;101862.16;4980151;28;20030;-75
2021/10/19 01:10:08;;;;;;;22.63;16.47;;;;;;;13.10;82.42;101848.78;4962787;28;20031;-74
2021/10/19 01:12:34;;;;;;;20.67;15.20;;;;;;;13.10;82.51;101859.31;4959920;28;20050;-74
2021/10/19 01:15:00;;;;;;;21.77;14.60;;;;;;;13.08;83.13;101846.09;4975521;28;20050;-75
2021/10/19 01:17:25;;;;;;;17.83;14.27;;;;;;;13.09;82.56;101841.75;4960721;28;20370;-75
2021/10/19 01:19:50;;;;;;;24.57;16.07;;;;;;;13.05;82.67;101846.00;4960641;28;20306;-74
2021/10/19 01:22:16;;;;;;;19.43;13.00;;;;;;;13.07;82.92;101840.81;4960303;28;20484;-74
2021/10/19 01:24:43;;;;;;;21.60;15.30;;;;;;;13.06;83.08;101839.91;4963508;28;20030;-75
2021/10/19 01:27:09;;;;;;;22.03;14.23;;;;;;;13.09;82.88;101836.47;4974632;28;20042;-73
2021/10/19 01:29:34;;;;;;;23.03;16.13;;;;;;;13.11;82.94;101834.78;4960271;28;20043;-75
2021/10/19 01:32:01;;;;;;;22.73;16.57;;;;;;;13.10;82.99;101819.88;4959371;28;20035;-76
2021/10/19 01:34:26;;;;;;;22.00;16.47;;;;;;;13.15;82.96;101823.56;4960580;28;20489;-75
2021/10/19 01:36:51;;;;;;;23.33;15.03;;;;;;;13.18;83.26;101821.91;4959444;28;20108;-75
2021/10/19 01:39:17;;;;;;;18.00;12.00;;;;;;;13.18;83.21;101821.00;4963883;28;20444;-75
2021/10/19 01:41:43;;;;;;;23.23;15.50;;;;;;;13.16;83.38;101823.63;4979534;28;20286;-74
2021/10/19 01:44:08;;;;;;;21.53;14.70;;;;;;;13.16;83.11;101820.06;4979743;28;20049;-75
2021/10/19 01:46:34;;;;;;;22.80;15.40;;;;;;;13.18;83.41;101818.38;4979807;28;20561;-75
2021/10/19 01:48:59;;;;;;;23.70;15.67;;;;;;;13.16;83.49;101820.97;4979434;28;20039;-75
2021/10/19 01:51:25;;;;;;;21.40;15.53;;;;;;;13.15;83.72;101816.53;4978120;28;20305;-75
2021/10/19 01:53:50;;;;;;;21.87;16.40;;;;;;;13.17;83.71;101816.59;4975328;28;20035;-74
2021/10/19 01:56:16;;;;;;;25.60;17.13;;;;;;;13.18;83.42;101814.03;4963206;28;20030;-75
2021/10/19 01:58:41;;;;;;;19.93;13.67;;;;;;;13.21;83.30;101809.72;4962046;28;20029;-75
2021/10/19 02:01:07;;;;;;;21.87;15.27;;;;;;;13.24;83.73;101808.06;4977994;28;20050;-74
2021/10/19 02:03:32;;;;;;;21.07;14.20;;;;;;;13.25;83.58;101791.44;4962433;28;20329;-74
2021/10/19 02:05:57;;;;;;;23.70;16.83;;;;;;;13.24;83.75;101787.03;4978902;28;20073;-74
2021/10/19 02:08:23;;;;;;;21.10;14.97;;;;;;;13.28;83.65;101793.28;4978091;28;20039;-76
2021/10/19 02:10:48;;;;;;;23.67;16.70;;;;;;;13.31;83.54;101796.91;4975147;28;20385;-76
2021/10/19 02:13:13;;;;;;;22.47;15.87;;;;;;;13.30;83.67;101792.50;4959072;28;20019;-74
2021/10/19 02:15:39;;;;;;;24.33;16.93;;;;;;;13.30;83.81;101794.22;4943264;29;20034;-74
2021/10/19 02:18:04;;;;;;;22.73;16.80;;;;;;;13.35;83.46;101789.09;4958877;28;20027;-73
2021/10/19 02:20:30;;;;;;;22.37;17.27;;;;;;;13.34;83.83;101790.84;4959837;28;20105;-74
2021/10/19 02:22:55;;;;;;;25.10;17.93;;;;;;;13.32;83.41;101785.53;4959335;28;20037;-74
2021/10/19 02:25:21;;;;;;;20.67;15.83;;;;;;;13.38;83.67;101787.47;4959639;28;20106;-73
2021/10/19 02:27:46;;;;;;;25.10;17.70;;;;;;;13.43;83.28;101779.72;4974410;28;20381;-74
2021/10/19 02:30:12;;;;;;;20.67;15.77;;;;;;;13.43;83.53;101779.72;4979091;28;20045;-74
2021/10/19 02:32:39;;;;;;;27.93;20.30;;;;;;;13.41;84.14;101787.59;4979962;28;20079;-72
2021/10/19 02:35:06;;;;;;;26.33;18.80;;;;;;;13.41;84.06;101784.94;4977948;28;20085;-74
2021/10/19 02:37:31;;;;;;;26.73;19.47;;;;;;;13.43;83.96;101787.59;4978580;28;20118;-74
2021/10/19 02:39:57;;;;;;;26.37;18.83;;;;;;;13.44;83.70;101790.28;4978418;28;20134;-75
2021/10/19 02:42:22;;;;;;;25.17;17.63;;;;;;;13.45;84.01;101784.22;4978403;28;20385;-74
2021/10/19 02:44:47;;;;;;;29.43;20.97;;;;;;;13.49;83.80;101771.19;4977371;28;20027;-72
2021/10/19 02:47:13;;;;;;;28.93;20.73;;;;;;;13.48;83.80;101767.66;4957939;28;20034;-73
2021/10/19 02:49:38;;;;;;;26.53;20.20;;;;;;;13.45;83.71;101768.44;4962295;28;20027;-74
2021/10/19 02:52:04;;;;;;;27.77;20.30;;;;;;;13.46;83.89;101758.81;4976938;28;20389;-74
2021/10/19 02:54:29;;;;;;;23.90;17.07;;;;;;;13.44;84.22;101750.84;4976977;28;20038;-74
2021/10/19 02:56:54;;;;;;;19.73;14.40;;;;;;;13.44;83.94;101736.78;4958010;28;20297;-74
2021/10/19 02:59:20;;;;;;;29.77;20.00;;;;;;;13.42;83.91;101735.84;4964298;28;20100;-74
2021/10/19 03:01:45;;;;;;;29.37;18.97;;;;;;;13.43;84.09;101735.91;4989637;28;20034;-73
2021/10/19 03:04:10;;;;;;;25.77;19.87;;;;;;;13.44;84.40;101735.06;4993178;28;20042;-72
2021/10/19 03:06:36;;;;;;;29.93;20.57;;;;;;;13.45;84.24;101726.34;4982309;28;20037;-73
2021/10/19 03:09:01;;;;;;;30.90;19.43;;;;;;;13.48;84.55;101736.06;4989053;28;20113;-73
2021/10/19 03:11:26;;;;;;;27.73;18.20;;;;;;;13.51;84.31;101732.66;4977868;28;20050;-73
2021/10/19 03:13:53;;;;;;;27.67;18.83;;;;;;;13.49;84.20;101723.81;4991171;28;20061;-73
2021/10/19 03:16:18;;;;;;;30.73;21.60;;;;;;;13.46;84.22;101722.00;4977794;28;20049;-73
2021/10/19 03:18:44;;;;;;;26.00;19.23;;;;;;;13.49;84.22;101718.56;4973847;28;20457;-74
2021/10/19 03:21:09;;;;;;;24.13;18.27;;;;;;;13.48;84.49;101719.38;4973648;28;20023;-74
2021/10/19 03:23:35;;;;;;;19.57;15.33;;;;;;;13.48;84.40;101720.28;4949578;28;20024;-74
2021/10/19 03:26:00;;;;;;;26.80;19.03;;;;;;;13.50;84.15;101712.44;4970622;28;20054;-73
2021/10/19 03:28:25;;;;;;;27.07;19.20;;;;;;;13.51;84.37;101722.13;4976916;28;20061;-75
2021/10/19 03:30:51;;;;;;;27.93;19.83;;;;;;;13.54;84.21;101732.72;4961424;28;20326;-73
2021/10/19 03:33:16;;;;;;;24.87;18.73;;;;;;;13.52;84.38;101731.81;4977517;28;20037;-74
2021/10/19 03:35:41;;;;;;;24.87;17.87;;;;;;;13.52;83.99;101732.66;4976719;28;20400;-73
2021/10/19 03:38:07;;;;;;;22.27;17.30;;;;;;;13.59;84.26;101731.16;4977628;28;20023;-73
2021/10/19 03:40:32;;;;;;;24.73;17.97;;;;;;;13.58;84.38;101740.75;4978001;28;20022;-75
2021/10/19 03:42:58;;;;;;;27.17;19.43;;;;;;;13.53;84.58;101737.13;4977087;28;20079;-74
2021/10/19 03:45:23;;;;;;;29.47;21.43;;;;;;;13.51;84.77;101743.19;4977388;28;20039;-73
2021/10/19 03:47:48;;;;;;;20.70;15.13;;;;;;;13.53;84.85;101739.75;4944975;28;20031;-74
2021/10/19 03:50:14;;;;;;;23.17;15.83;;;;;;;13.53;84.70;101746.75;4976488;28;20497;-73
2021/10/19 03:52:39;;;;;;;25.67;18.40;;;;;;;13.51;84.97;101746.69;4977744;28;20046;-74
2021/10/19 03:55:06;;;;;;;27.07;20.03;;;;;;;13.49;85.00;101743.13;4977842;28;20027;-75
2021/10/19 03:57:31;;;;;;;28.97;20.20;;;;;;;13.50;84.89;101742.25;4981017;28;20378;-75
2021/10/19 03:59:56;;;;;;;29.80;20.33;;;;;;;13.51;85.21;101743.19;4963621;28;20023;-74
2021/10/19 04:02:21;;;;;;;25.93;18.00;;;;;;;13.51;85.00;101735.28;4964418;28;20034;-77
2021/10/19 04:04:47;;;;;;;28.37;20.90;;;;;;;13.50;85.17;101739.63;4981447;28;20045;-75
2021/10/19 04:07:13;;;;;;;30.60;20.73;;;;;;;13.49;85.11;101734.34;4981204;28;20037;-76
2021/10/19 04:09:39;;;;;;;27.53;18.60;;;;;;;13.51;85.06;101738.78;4980902;28;20031;-77
2021/10/19 04:12:05;;;;;;;28.23;18.40;;;;;;;13.52;85.19;101735.31;4979629;28;20023;-74
2021/10/19 04:14:30;;;;;;;27.73;19.63;;;;;;;13.52;85.12;101739.69;4996871;28;20081;-75
2021/10/19 04:16:55;;;;;;;24.37;17.17;;;;;;;13.51;85.76;101736.16;4980928;28;20018;-76
2021/10/19 04:19:21;;;;;;;22.70;15.27;;;;;;;13.55;85.14;101735.41;4980757;28;20027;-76
2021/10/19 04:21:47;;;;;;;23.47;16.57;;;;;;;13.57;85.41;101732.84;4982569;28;20365;-75
2021/10/19 04:24:14;;;;;;;27.77;17.83;;;;;;;13.55;85.49;101737.16;4968069;28;20074;-75
2021/10/19 04:26:39;;;;;;;20.37;13.67;;;;;;;13.59;85.39;101741.66;4961992;28;20016;-77
2021/10/19 04:29:04;;;;;;;20.17;14.47;;;;;;;13.62;85.21;101746.13;4961324;28;20293;-76
2021/10/19 04:31:31;;;;;;;19.67;14.83;;;;;;;13.64;85.41;101744.44;4977250;28;20393;-77
2021/10/19 04:33:59;;;;;;;19.83;14.07;;;;;;;13.65;85.09;101740.94;4964129;28;20035;-79
2021/10/19 04:36:25;;;;;;;22.07;15.03;;;;;;;13.62;85.37;101739.13;4980290;28;20038;-78
2021/10/19 04:38:50;;;;;;;22.33;15.63;;;;;;;13.62;85.45;101735.63;4964106;28;20027;-79
2021/10/19 04:41:15;;;;;;;15.13;11.63;;;;;;;13.64;85.29;101737.41;4964191;28;20429;-79
2021/10/19 04:43:41;;;;;;;17.70;13.20;;;;;;;13.66;85.29;101725.22;4964694;28;20073;-79
2021/10/19 04:46:06;;;;;;;17.17;12.73;;;;;;;13.71;85.10;101726.22;4964921;28;20022;-81
2021/10/19 04:48:31;;;;;;;16.47;12.40;;;;;;;13.73;85.41;101726.28;4980187;28;20077;-80
2021/10/19 04:50:56;;;;;;;16.57;12.03;;;;;;;13.74;85.50;101720.16;4980278;28;20378;-80
2021/10/19 04:53:22;;;;;;;21.20;15.00;;;;;;;13.72;85.30;101711.34;4979885;28;20023;-80
2021/10/19 04:55:48;;;;;;;20.13;14.83;;;;;;;13.71;85.41;101714.81;4980980;28;20027;-80
2021/10/19 04:58:14;;;;;;;21.37;15.40;;;;;;;13.72;85.42;101711.34;4963739;28;20019;-78
2021/10/19 05:00:41;;;;;;;23.50;16.37;;;;;;;13.74;85.49;101705.28;4980612;28;20297;-83
2021/10/19 05:03:07;;;;;;;23.73;17.53;;;;;;;13.78;85.68;101705.34;4979989;28;20030;-83
2021/10/19 05:05:33;;;;;;;18.77;14.13;;;;;;;13.79;85.69;101699.25;4964149;28;20057;-82
2021/10/19 05:07:58;;;;;;;27.57;18.80;;;;;;;13.77;85.43;101700.94;4978577;28;20405;-78
2021/10/19 05:10:24;;;;;;;25.27;18.47;;;;;;;13.80;85.55;101701.94;4980757;28;20027;-78
2021/10/19 05:12:49;;;;;;;33.13;20.97;;;;;;;13.82;85.79;101704.63;4963347;28;20031;-81
2021/10/19 05:15:14;;;;;;;22.90;16.17;;;;;;;13.83;85.48;101703.75;4963313;28;20029;-80
2021/10/19 05:17:40;;;;;;;25.37;16.77;;;;;;;13.88;85.77;101703.03;4978819;28;20077;-80
2021/10/19 05:20:06;;;;;;;29.70;19.13;;;;;;;13.86;85.38;101695.94;4978433;28;20050;-82
2021/10/19 05:22:32;;;;;;;25.63;17.20;;;;;;;13.84;85.75;101692.38;4979858;28;20277;-81
2021/10/19 05:24:57;;;;;;;29.47;19.73;;;;;;;13.85;85.34;101692.44;4962512;28;20229;-79
2021/10/19 05:27:23;;;;;;;34.17;20.97;;;;;;;13.87;85.77;101697.72;4978838;28;20427;-81
2021/10/19 05:29:48;;;;;;;39.17;24.30;;;;;;;13.85;85.49;101694.16;4962055;28;20047;-81
2021/10/19 05:32:14;;;;;;;32.47;20.27;;;;;;;13.88;85.85;101687.25;4962714;28;20301;-82
2021/10/19 05:34:39;;;;;;;36.33;23.07;;;;;;;13.92;85.56;101689.94;4978802;28;20301;-81
2021/10/19 05:37:05;;;;;;;31.90;20.13;;;;;;;13.90;85.74;101689.03;4978608;28;20026;-81
2021/10/19 05:39:30;;;;;;;38.73;22.20;;;;;;;13.89;85.63;101693.41;4962433;28;20023;-80
2021/10/19 05:41:56;;;;;;;42.37;24.03;;;;;;;13.90;85.96;101702.19;4979038;28;20282;-80
2021/10/19 05:44:21;;;;;;;41.17;24.53;;;;;;;13.93;85.69;101697.00;4979073;28;20034;-79
2021/10/19 05:46:46;;;;;;;41.63;23.33;;;;;;;13.93;85.81;101705.78;4979257;28;20039;-82
2021/10/19 05:49:14;;;;;;;40.07;23.40;;;;;;;13.95;86.18;101705.84;4962082;28;20030;-83
2021/10/19 05:51:39;;;;;;;43.13;24.97;;;;;;;13.96;85.82;101699.72;4963294;28;20348;-82
2021/10/19 05:54:05;;;;;;;42.93;25.57;;;;;;;13.96;85.80;101700.59;4978236;28;20125;-79
2021/10/19 05:56:30;;;;;;;43.77;24.73;;;;;;;13.95;85.74;101693.56;4960798;28;20035;-81
2021/10/19 05:58:55;;;;;;;39.77;24.30;;;;;;;13.98;86.04;101698.03;4975677;28;20389;-79
2021/10/19 06:01:21;;;;;;;49.97;26.53;;;;;;;13.99;86.17;101689.28;4959117;28;20054;-78
2021/10/19 06:03:46;;;;;;;51.83;27.10;;;;;;;13.99;85.80;101681.38;4977619;28;20274;-78
2021/10/19 06:06:15;;;;;;;40.37;25.00;;;;;;;14.05;86.17;101676.28;4976560;28;20446;-85
2021/10/19 06:08:40;;;;;;;41.13;24.80;;;;;;;14.09;86.38;101677.25;4960275;28;20031;-80
2021/10/19 06:11:05;;;;;;;37.77;22.90;;;;;;;14.17;86.31;101688.91;4976720;28;20029;-78
2021/10/19 06:13:31;;;;;;;35.73;22.40;;;;;;;14.15;85.92;101680.06;4977068;28;20397;-81
2021/10/19 06:15:57;;;;;;;38.13;23.90;;;;;;;14.16;85.55;101687.13;4950147;28;20086;-81
2021/10/19 06:18:24;;;;;;;44.00;25.60;;;;;;;14.18;85.72;101687.16;4960430;28;20023;-81
2021/10/19 06:20:49;;;;;;;45.27;25.70;;;;;;;14.17;86.30;101688.00;4968114;28;20121;-77
2021/10/19 06:23:16;;;;;;;48.67;26.77;;;;;;;14.13;86.13;101693.19;4977796;28;20106;-79
2021/10/19 06:25:41;;;;;;;37.00;22.67;;;;;;;14.19;86.25;101695.09;4945442;28;20113;-81
2021/10/19 06:28:07;;;;;;;39.00;22.70;;;;;;;14.21;85.96;101695.13;4960732;28;20137;-84
2021/10/19 06:30:32;;;;;;;42.80;24.43;;;;;;;14.27;86.72;101685.66;4948913;28;20027;-79
2021/10/19 06:32:58;;;;;;;45.50;26.17;;;;;;;14.26;86.41;101693.53;4977789;28;20026;-81
2021/10/19 06:35:23;;;;;;;43.77;26.07;;;;;;;14.23;85.89;101686.44;4958571;28;20094;-81
2021/10/19 06:37:49;;;;;;;39.73;23.73;;;;;;;14.25;86.47;101692.63;4976033;28;20034;-82
2021/10/19 06:40:14;;;;;;;43.87;25.47;;;;;;;14.29;86.06;101686.59;4961359;28;20026;-80
2021/10/19 06:42:41;;;;;;;26.77;17.17;;;;;;;14.32;86.25;101693.66;4961869;28;20061;-80
2021/10/19 06:45:07;;;;;;;39.77;24.60;;;;;;;14.30;85.89;101695.38;4960688;28;20118;-78
2021/10/19 06:47:33;;;;;;;43.20;25.70;;;;;;;14.26;86.12;101688.25;4977710;28;20106;-78
2021/10/19 06:49:58;;;;;;;38.60;23.97;;;;;;;14.28;86.28;101699.72;4962038;28;20034;-80
2021/10/19 06:52:24;;;;;;;36.97;22.70;;;;;;;14.30;86.18;101703.28;4963364;28;20019;-80
2021/10/19 06:54:49;;;;;;;40.03;23.33;;;;;;;14.29;86.44;101699.78;4980158;28;20022;-83
2021/10/19 06:57:15;;;;;;;43.87;24.67;;;;;;;14.31;86.46;101710.31;4946090;28;20014;-80
2021/10/19 06:59:40;;;;;;;39.70;22.43;;;;;;;14.32;86.11;101705.97;4957580;28;20033;-80
2021/10/19 07:02:05;;;;;;;39.07;24.40;;;;;;;14.30;86.30;101711.19;4978685;28;20022;-80
2021/10/19 07:04:31;;;;;;;39.80;23.93;;;;;;;14.32;86.46;101706.84;4977967;28;20082;-78
2021/10/19 07:06:56;;;;;;;32.53;20.27;;;;;;;14.35;86.42;101706.94;4977157;28;20400;-79
2021/10/19 07:09:22;;;;;;;28.07;18.30;;;;;;;14.38;86.52;101703.50;4959576;28;20023;-77
2021/10/19 07:11:47;;;;;;;32.93;20.87;;;;;;;14.37;86.46;101691.16;4977896;28;20077;-78
2021/10/19 07:14:12;;;;;;;38.83;22.30;;;;;;;14.38;86.73;101696.47;4976553;28;20129;-79
2021/10/19 07:16:38;;;;;;;39.07;21.53;;;;;;;14.41;86.64;101695.66;4960207;28;20041;-76
2021/10/19 07:19:08;;;;;;;37.90;22.47;;;;;;;14.46;86.13;101701.97;4977331;28;20026;-77
2021/10/19 07:21:33;;;;;;;40.10;22.70;;;;;;;14.51;86.25;101702.94;4976599;28;20054;-77
2021/10/19 07:23:59;;;;;;;37.53;22.33;;;;;;;14.51;86.30;101708.22;4978467;28;20068;-79
2021/10/19 07:26:24;;;;;;;35.27;21.90;;;;;;;14.48;86.08;101707.25;4976980;28;20042;-79
2021/10/19 07:28:50;;;;;;;31.93;19.33;;;;;;;14.53;86.69;101700.34;4974836;28;20039;-76
2021/10/19 07:31:15;;;;;;;25.07;16.87;;;;;;;14.55;86.60;101704.81;4975065;28;20022;-78
2021/10/19 07:33:40;;;;;;;30.97;19.67;;;;;;;14.53;86.59;101701.25;4976188;28;20022;-78
2021/10/19 07:36:05;;;;;;;31.90;20.83;;;;;;;14.55;86.26;101701.28;4976042;28;20026;-79
2021/10/19 07:38:31;;;;;;;29.43;18.87;;;;;;;14.54;86.36;101702.13;4974137;28;20118;-77
2021/10/19 07:40:56;;;;;;;33.83;21.07;;;;;;;14.59;86.28;101696.97;4975874;28;20029;-78
2021/10/19 07:43:21;;;;;;;29.77;18.13;;;;;;;14.63;86.23;101696.22;4977472;28;20042;-79
2021/10/19 07:45:47;;;;;;;31.00;19.80;;;;;;;14.61;86.57;101698.81;4976528;28;20038;-76
2021/10/19 07:48:12;;;;;;;31.77;20.07;;;;;;;14.65;86.33;101695.41;4973345;28;20377;-78
2021/10/19 07:50:37;;;;;;;34.33;19.40;;;;;;;14.64;86.70;101690.97;4976678;28;20304;-77
2021/10/19 07:53:03;;;;;;;18.33;13.00;;;;;;;14.68;86.51;101691.94;4976315;28;20381;-79
2021/10/19 07:55:32;;;;;;;26.33;18.47;;;;;;;14.72;86.42;101693.81;4960153;28;20023;-77
2021/10/19 07:57:58;;;;;;;29.90;19.60;;;;;;;14.70;86.64;101690.25;4967244;28;20038;-78
2021/10/19 08:00:24;;;;;;;26.33;17.70;;;;;;;14.75;86.42;101690.41;4976473;28;20027;-78
2021/10/19 08:02:51;;;;;;;21.17;16.33;;;;;;;14.78;86.20;101688.72;4973159;28;20023;-77
2021/10/19 08:05:16;;;;;;;31.93;20.40;;;;;;;14.77;86.19;101694.84;4977168;28;20344;-78
2021/10/19 08:07:42;;;;;;;20.63;14.80;;;;;;;14.84;85.93;101690.63;4960023;28;20102;-80
2021/10/19 08:10:08;;;;;;;23.33;17.10;;;;;;;14.86;86.33;101694.19;4959278;28;20041;-76
2021/10/19 08:12:34;;;;;;;29.03;16.93;;;;;;;14.88;86.33;101686.31;4960165;28;20570;-79
2021/10/19 08:15:01;;;;;;;19.40;13.93;;;;;;;14.92;86.59;101693.44;4976219;28;20031;-78
2021/10/19 08:17:27;;;;;;;25.20;16.60;;;;;;;14.92;86.44;101691.69;4960515;28;20027;-76
2021/10/19 08:19:53;;;;;;;19.83;14.30;;;;;;;14.94;86.50;101691.75;4975558;28;20034;-77
2021/10/19 08:22:18;;;;;;;25.13;17.27;;;;;;;14.94;86.60;101694.38;4975891;28;20314;-74
2021/10/19 08:24:44;;;;;;;20.47;14.40;;;;;;;14.99;86.30;101694.47;4975320;28;20121;-77
2021/10/19 08:27:09;;;;;;;31.23;20.63;;;;;;;14.99;86.29;101699.75;4974917;28;20015;-74
2021/10/19 08:29:34;;;;;;;28.00;19.10;;;;;;;14.97;86.45;101694.44;4975107;28;20042;-76
2021/10/19 08:32:00;;;;;;;30.10;20.17;;;;;;;14.96;86.50;101687.38;4975039;28;20081;-77
2021/10/19 08:34:25;;;;;;;29.27;19.63;;;;;;;14.97;86.67;101695.34;4975370;28;20282;-76
2021/10/19 08:36:50;;;;;;;35.87;21.90;;;;;;;15.01;86.33;101692.78;4975549;28;20034;-77
2021/10/19 08:39:16;;;;;;;29.53;19.17;;;;;;;15.07;86.84;101693.78;4974808;28;20030;-75
2021/10/19 08:41:41;;;;;;;37.67;22.50;;;;;;;15.05;86.66;101692.88;4975488;28;20030;-77
2021/10/19 08:44:06;;;;;;;38.23;23.83;;;;;;;15.02;86.45;101687.53;4978127;28;20042;-77
2021/10/19 08:46:32;;;;;;;33.03;20.53;;;;;;;15.06;86.23;101692.00;4978870;28;20375;-79
2021/10/19 08:48:57;;;;;;;39.47;24.10;;;;;;;15.04;86.48;101687.56;4977551;28;20038;-74
2021/10/19 08:51:23;;;;;;;33.70;21.50;;;;;;;15.09;86.28;101685.91;4978658;28;20106;-76
2021/10/19 08:53:48;;;;;;;40.27;24.57;;;;;;;15.11;86.20;101687.75;4978288;28;20031;-78
2021/10/19 08:56:13;;;;;;;36.43;21.57;;;;;;;15.11;86.46;101685.09;4975630;28;20394;-76
2021/10/19 08:58:40;;;;;;;28.17;19.37;;;;;;;15.11;86.15;101682.47;4978046;28;20015;-75
2021/10/19 09:01:06;;;;;;;34.50;22.93;;;;;;;15.13;86.67;101684.25;4977233;28;20074;-79
2021/10/19 09:03:32;;;;;;;37.50;21.73;;;;;;;15.13;86.44;101684.25;4978521;28;20484;-74
2021/10/19 09:05:57;;;;;;;31.90;21.30;;;;;;;15.17;86.45;101689.63;4961670;28;20102;-76
2021/10/19 09:08:25;;;;;;;30.73;19.87;;;;;;;15.19;86.59;101693.19;4977221;28;20049;-75
2021/10/19 09:10:50;;;;;;;35.93;21.97;;;;;;;15.20;86.21;101696.72;4953765;28;20388;-75
2021/10/19 09:13:16;;;;;;;36.70;21.87;;;;;;;15.24;86.35;101694.19;4959191;28;20033;-77
2021/10/19 09:15:43;;;;;;;30.33;17.97;;;;;;;15.24;86.67;101696.81;4977524;28;20031;-75
2021/10/19 09:18:10;;;;;;;29.07;18.07;;;;;;;15.25;86.64;101701.25;4978101;28;20027;-77
2021/10/19 09:20:43;;;;;;;30.60;19.00;;;;;;;15.27;86.13;101703.03;4978016;28;20301;-78
2021/10/19 09:23:09;;;;;;;28.80;17.13;;;;;;;15.29;86.30;101706.56;4976852;28;20054;-74
2021/10/19 09:25:39;;;;;;;33.83;17.93;;;;;;;15.30;85.91;101697.84;4973865;28;20066;-80
2021/10/19 09:28:06;;;;;;;32.33;18.23;;;;;;;15.33;86.60;101696.13;4960399;28;20023;-76
2021/10/19 09:30:45;;;;;;;34.23;18.63;;;;;;;15.36;86.34;101697.94;4962734;28;20054;-78
2021/10/19 09:33:18;;;;;;;30.60;17.43;;;;;;;15.41;86.55;101701.59;4978259;28;20364;-83
2021/10/19 09:35:47;;;;;;;27.20;16.83;;;;;;;15.42;86.51;101708.66;4963532;28;20058;-83
2021/10/19 09:38:12;;;;;;;30.87;17.97;;;;;;;15.43;86.27;101701.63;4946079;28;20400;-76
2021/10/19 09:40:38;;;;;;;31.37;18.43;;;;;;;15.46;86.40;101709.59;4978323;28;20133;-79
2021/10/19 09:43:06;;;;;;;33.47;19.17;;;;;;;15.43;86.55;101701.63;4977352;28;20030;-77
2021/10/19 09:45:33;;;;;;;30.90;18.30;;;;;;;15.46;86.43;101704.31;4977750;28;20027;-81
2021/10/19 09:47:59;;;;;;;36.57;19.00;;;;;;;15.49;86.78;101709.66;4960789;28;20092;-75
2021/10/19 09:50:25;;;;;;;30.17;16.83;;;;;;;15.53;86.37;101707.13;4978064;28;20304;-75
2021/10/19 09:52:51;;;;;;;33.60;19.13;;;;;;;15.59;86.53;101694.91;4977058;28;20048;-76
2021/10/19 09:55:16;;;;;;;32.53;17.97;;;;;;;15.63;86.76;101699.44;4960748;28;20093;-74
2021/10/19 09:57:45;;;;;;;33.33;18.47;;;;;;;15.67;86.59;101701.25;4976807;28;20106;-74
2021/10/19 10:00:11;;;;;;;31.97;18.13;;;;;;;15.73;86.62;101703.13;4976408;28;20018;-72
2021/10/19 10:02:36;;;;;;;33.90;18.70;;;;;;;15.78;86.36;101701.47;4977204;28;20077;-74
2021/10/19 10:05:03;;;;;;;33.60;18.17;;;;;;;15.76;86.20;101704.06;4976958;28;20109;-76
2021/10/19 10:07:30;;;;;;;28.93;17.47;;;;;;;15.78;86.15;101705.03;4977257;28;20019;-75
2021/10/19 10:09:57;;;;;;;22.50;14.67;;;;;;;15.82;86.37;101702.44;4962538;28;20043;-74
2021/10/19 10:12:29;;;;;;;22.77;13.57;;;;;;;15.80;86.62;101705.94;4977048;28;20308;-72
2021/10/19 10:14:54;;;;;;;19.27;11.63;;;;;;;15.79;86.30;101695.34;4956713;28;20394;-81
2021/10/19 10:17:19;;;;;;;22.67;13.53;;;;;;;15.79;86.28;101704.16;4975452;28;20029;-73
2021/10/19 10:19:45;;;;;;;24.90;13.30;;;;;;;15.81;86.26;101696.25;4976403;28;20062;-77
2021/10/19 10:22:18;;;;;;;22.97;13.40;;;;;;;15.79;86.53;101712.09;4976233;28;20022;-76
2021/10/19 10:24:43;;;;;;;15.97;10.30;;;;;;;15.83;86.17;101709.50;4977551;28;20049;-78
2021/10/19 10:27:11;;;;;;;16.67;11.10;;;;;;;15.85;86.05;101713.94;4955629;28;20319;-79
2021/10/19 10:29:44;;;;;;;20.97;13.07;;;;;;;15.84;85.96;101703.34;4974620;28;20027;-78
2021/10/19 10:32:26;;;;;;;21.47;12.50;;;;;;;15.91;86.10;101705.28;4978164;28;20046;-76
2021/10/19 10:35:23;;;;;;;22.87;14.20;;;;;;;15.89;86.37;101705.22;4978063;28;20033;-77
2021/10/19 10:37:55;;;;;;;18.58;13.10;;;;;;;15.94;86.45;101710.66;4978130;28;20313;-78
2021/10/19 10:40:27;;;;;;;21.57;14.37;;;;;;;15.99;86.39;101708.09;4977405;28;20125;-71
2021/10/19 10:42:53;;;;;;;22.23;13.57;;;;;;;16.00;86.82;101701.94;4976148;28;20133;-76
2021/10/19 10:45:20;;;;;;;28.55;14.55;;;;;;;15.99;86.15;101701.03;4977739;28;20456;-80
2021/10/19 10:47:47;;;;;;;20.10;13.63;;;;;;;16.01;86.30;101706.38;4960647;28;20035;-77
2021/10/19 10:50:12;;;;;;;18.37;11.90;;;;;;;16.05;86.34;101711.75;4978197;28;20039;-77
2021/10/19 10:52:37;;;;;;;21.10;12.82;;;;;;;16.01;86.24;101701.97;4978555;28;20050;-75
2021/10/19 10:55:04;;;;;;;18.50;12.07;;;;;;;16.02;85.96;101703.75;4976357;28;20109;-77
2021/10/19 10:57:30;;;;;;;18.87;11.70;;;;;;;16.07;86.28;101698.56;4961249;28;20085;-77
2021/10/19 10:59:55;;;;;;;17.27;11.18;;;;;;;16.09;86.19;101698.56;4960687;28;20066;-74
2021/10/19 11:02:24;;;;;;;17.30;10.95;;;;;;;16.09;86.33;101695.94;4961166;28;20385;-77
2021/10/19 11:04:50;;;;;;;17.60;11.73;;;;;;;16.12;86.38;101699.53;4977437;28;20362;-74